CheckWX is a tool to help pilots better visualize weather data.  It is not intended as a substitute for an official pre-flight weather briefing.

18:25:47 UTC

KBMG METAR
Monroe County Airport
Bloomington, Indiana, USA
Current

33 mins ago

KBMG 201753Z 26009KT 10SM VCTS CLR 28/21 A3004 RMK AO2 LTG DSNT ALQDS SLP165 TS VC SW MOV E T02830211 10311 20239 56012
Observed
Aug-20 @ 17:53 UTC
Wind
  • 260° at 9 KTS
Visibility
10 SM
Flight Rules
VFR
Conditions
Area Thunderstorm
Cloud Levels
  • Clear skies
Temperature
28°C / 82°F
Dewpoint
21°C / 70°F
Heat Index
30°C / 86°F
Humidity
66%
Altimeter
30.04" Hg
Pressure
1017.32 hPa
Previous

60 mins ago

KBMG 201726Z 23008KT 10SM VCTS SCT032 BKN040 BKN050 29/23 A3005 RMK AO2 LTG DSNT SW-NW TS VC SW MOV E T02940233
Observed
Aug-20 @ 17:26 UTC
Wind
  • 230° at 8 KTS
Visibility
10 SM
Flight Rules
VFR
Conditions
Area Thunderstorm
Cloud Levels
  • Scattered at 3,200' AGL
  • Broken at 4,000' AGL
  • Broken at 5,000' AGL
Temperature
29°C / 84°F
Dewpoint
23°C / 73°F
Heat Index
32°C / 90°F
Humidity
70%
Altimeter
30.05" Hg
Pressure
1017.62 hPa
Previous

2 hours ago

KBMG 201653Z 21008KT 10SM SCT034 SCT043 BKN049 31/23 A3006 RMK AO2 LTG DSNT SW AND W SLP169 T03060233
Observed
Aug-20 @ 16:53 UTC
Wind
  • 210° at 8 KTS
Visibility
10 SM
Flight Rules
VFR
Cloud Levels
  • Scattered at 3,400' AGL
  • Scattered at 4,300' AGL
  • Broken at 4,900' AGL
Temperature
31°C / 88°F
Dewpoint
23°C / 73°F
Heat Index
36°C / 96°F
Humidity
62%
Altimeter
30.06" Hg
Pressure
1017.92 hPa